Ent AFB, Colorado
Current Conditions -  °F | °C
As of 4:54 AM on Thursday 27 Nov 2014 (Local Time) from KCOS Reporting Station
Scattered Clouds Scattered Clouds  
Wind Chill: 25°   Ceiling: Unl
Heat Index: 34°   Visibility: 10mi
Dew Point: 21°   Wind: 12mph
Humidity: 59%   Direction: 10°N
Pressure: 30.28"   Gusts: NA
Location:  38.8334°N, 104.82°W
Report Text: KCOS 271154Z 01010KT 10SM SCT220 SCT250 01/M06 A3028 RMK AO2 SLP278 T00111061 10028 21061 56008
Loading
Personal Weather Stations






























Interactive Weather Map New forecast layout! Learn more

10-Day Weather Forecast

Advertisements
Track Severe Weather on mobile